sensor_id;sensor_type;location;lat;lon;timestamp;P1;durP1;ratioP1;P2;durP2;ratioP2
52354;SDS011;38286;51.156;17.038;2023-05-14T00:02:20;16.63;;;10.60;;
52354;SDS011;38286;51.156;17.038;2023-05-14T00:04:46;19.83;;;10.52;;
52354;SDS011;38286;51.156;17.038;2023-05-14T00:07:12;20.58;;;10.45;;
52354;SDS011;38286;51.156;17.038;2023-05-14T00:09:38;19.80;;;11.40;;
52354;SDS011;38286;51.156;17.038;2023-05-14T00:12:04;18.65;;;11.48;;
52354;SDS011;38286;51.156;17.038;2023-05-14T00:14:30;18.20;;;11.23;;
52354;SDS011;38286;51.156;17.038;2023-05-14T00:16:56;19.05;;;10.38;;
52354;SDS011;38286;51.156;17.038;2023-05-14T00:19:24;20.42;;;11.30;;
52354;SDS011;38286;51.156;17.038;2023-05-14T00:21:50;18.58;;;11.02;;
52354;SDS011;38286;51.156;17.038;2023-05-14T00:24:16;17.48;;;10.73;;
52354;SDS011;38286;51.156;17.038;2023-05-14T00:26:42;19.15;;;10.48;;
52354;SDS011;38286;51.156;17.038;2023-05-14T00:29:08;20.73;;;11.30;;
52354;SDS011;38286;51.156;17.038;2023-05-14T00:31:34;19.02;;;10.57;;
52354;SDS011;38286;51.156;17.038;2023-05-14T00:34:01;21.35;;;10.60;;
52354;SDS011;38286;51.156;17.038;2023-05-14T00:36:26;19.42;;;10.40;;
52354;SDS011;38286;51.156;17.038;2023-05-14T00:38:52;16.00;;;10.02;;
52354;SDS011;38286;51.156;17.038;2023-05-14T00:41:18;14.90;;;10.10;;
52354;SDS011;38286;51.156;17.038;2023-05-14T00:43:45;16.67;;;10.10;;
52354;SDS011;38286;51.156;17.038;2023-05-14T00:46:11;19.35;;;10.30;;
52354;SDS011;38286;51.156;17.038;2023-05-14T00:48:37;17.88;;;10.50;;
52354;SDS011;38286;51.156;17.038;2023-05-14T00:51:03;15.35;;;9.57;;
52354;SDS011;38286;51.156;17.038;2023-05-14T00:53:29;14.35;;;9.88;;
52354;SDS011;38286;51.156;17.038;2023-05-14T00:55:56;17.48;;;9.75;;
52354;SDS011;38286;51.156;17.038;2023-05-14T00:58:22;17.90;;;10.95;;
52354;SDS011;38286;51.156;17.038;2023-05-14T01:00:48;18.13;;;10.20;;
52354;SDS011;38286;51.156;17.038;2023-05-14T01:03:14;13.57;;;9.60;;
52354;SDS011;38286;51.156;17.038;2023-05-14T01:05:42;16.35;;;10.25;;
52354;SDS011;38286;51.156;17.038;2023-05-14T01:16:44;15.60;;;8.88;;
52354;SDS011;38286;51.156;17.038;2023-05-14T01:19:19;15.82;;;9.10;;
52354;SDS011;38286;51.156;17.038;2023-05-14T01:21:46;14.75;;;9.20;;
52354;SDS011;38286;51.156;17.038;2023-05-14T01:24:12;16.10;;;9.10;;
52354;SDS011;38286;51.156;17.038;2023-05-14T01:26:38;15.98;;;10.02;;
52354;SDS011;38286;51.156;17.038;2023-05-14T01:29:12;14.68;;;8.85;;
52354;SDS011;38286;51.156;17.038;2023-05-14T01:31:42;15.13;;;9.98;;
52354;SDS011;38286;51.156;17.038;2023-05-14T01:34:08;17.88;;;8.90;;
52354;SDS011;38286;51.156;17.038;2023-05-14T01:36:36;16.00;;;9.70;;
52354;SDS011;38286;51.156;17.038;2023-05-14T01:39:03;15.45;;;8.85;;
52354;SDS011;38286;51.156;17.038;2023-05-14T01:41:30;15.80;;;9.45;;
52354;SDS011;38286;51.156;17.038;2023-05-14T01:43:57;16.73;;;9.13;;
52354;SDS011;38286;51.156;17.038;2023-05-14T01:46:23;16.10;;;8.93;;
52354;SDS011;38286;51.156;17.038;2023-05-14T01:48:49;17.15;;;9.40;;
52354;SDS011;38286;51.156;17.038;2023-05-14T01:51:15;17.67;;;9.23;;
52354;SDS011;38286;51.156;17.038;2023-05-14T01:53:41;13.80;;;9.35;;
52354;SDS011;38286;51.156;17.038;2023-05-14T01:56:07;12.85;;;8.57;;
52354;SDS011;38286;51.156;17.038;2023-05-14T01:58:33;13.25;;;8.85;;
52354;SDS011;38286;51.156;17.038;2023-05-14T02:00:59;13.63;;;8.82;;
52354;SDS011;38286;51.156;17.038;2023-05-14T02:03:25;17.23;;;9.82;;
52354;SDS011;38286;51.156;17.038;2023-05-14T02:05:51;14.00;;;8.50;;
52354;SDS011;38286;51.156;17.038;2023-05-14T02:08:17;13.93;;;8.57;;
52354;SDS011;38286;51.156;17.038;2023-05-14T02:10:43;13.25;;;8.38;;
52354;SDS011;38286;51.156;17.038;2023-05-14T02:13:09;14.85;;;8.75;;
52354;SDS011;38286;51.156;17.038;2023-05-14T02:15:35;15.68;;;8.90;;
52354;SDS011;38286;51.156;17.038;2023-05-14T02:18:01;13.68;;;9.38;;
52354;SDS011;38286;51.156;17.038;2023-05-14T02:20:27;14.40;;;9.75;;
52354;SDS011;38286;51.156;17.038;2023-05-14T02:22:53;14.85;;;8.98;;
52354;SDS011;38286;51.156;17.038;2023-05-14T02:25:19;13.60;;;8.93;;
52354;SDS011;38286;51.156;17.038;2023-05-14T02:27:45;14.73;;;9.02;;
52354;SDS011;38286;51.156;17.038;2023-05-14T02:30:11;14.55;;;8.80;;
52354;SDS011;38286;51.156;17.038;2023-05-14T02:32:37;12.13;;;8.20;;
52354;SDS011;38286;51.156;17.038;2023-05-14T02:35:03;14.27;;;8.88;;
52354;SDS011;38286;51.156;17.038;2023-05-14T02:37:29;16.73;;;8.48;;
52354;SDS011;38286;51.156;17.038;2023-05-14T02:39:55;12.88;;;8.32;;
52354;SDS011;38286;51.156;17.038;2023-05-14T02:42:21;14.82;;;8.60;;
52354;SDS011;38286;51.156;17.038;2023-05-14T02:44:47;14.15;;;8.88;;
52354;SDS011;38286;51.156;17.038;2023-05-14T02:47:13;14.30;;;8.80;;
52354;SDS011;38286;51.156;17.038;2023-05-14T02:49:39;18.52;;;8.93;;
52354;SDS011;38286;51.156;17.038;2023-05-14T02:52:05;16.25;;;8.98;;
52354;SDS011;38286;51.156;17.038;2023-05-14T02:54:31;12.95;;;8.48;;
52354;SDS011;38286;51.156;17.038;2023-05-14T02:56:57;14.25;;;9.18;;
52354;SDS011;38286;51.156;17.038;2023-05-14T02:59:23;13.82;;;8.80;;
52354;SDS011;38286;51.156;17.038;2023-05-14T03:01:49;13.48;;;8.32;;
52354;SDS011;38286;51.156;17.038;2023-05-14T03:04:15;14.98;;;8.70;;
52354;SDS011;38286;51.156;17.038;2023-05-14T03:06:41;13.93;;;9.00;;
52354;SDS011;38286;51.156;17.038;2023-05-14T03:09:07;19.27;;;9.05;;
52354;SDS011;38286;51.156;17.038;2023-05-14T03:11:33;15.52;;;8.35;;
52354;SDS011;38286;51.156;17.038;2023-05-14T03:13:59;14.63;;;8.30;;
52354;SDS011;38286;51.156;17.038;2023-05-14T03:16:26;14.07;;;9.35;;
52354;SDS011;38286;51.156;17.038;2023-05-14T03:18:51;13.10;;;9.18;;
52354;SDS011;38286;51.156;17.038;2023-05-14T03:21:18;19.15;;;9.13;;
52354;SDS011;38286;51.156;17.038;2023-05-14T03:23:43;14.57;;;9.20;;
52354;SDS011;38286;51.156;17.038;2023-05-14T03:26:10;14.98;;;9.32;;
52354;SDS011;38286;51.156;17.038;2023-05-14T03:28:35;14.32;;;9.85;;
52354;SDS011;38286;51.156;17.038;2023-05-14T03:31:01;16.20;;;9.13;;
52354;SDS011;38286;51.156;17.038;2023-05-14T03:33:27;13.50;;;8.50;;
52354;SDS011;38286;51.156;17.038;2023-05-14T03:35:54;18.05;;;9.77;;
52354;SDS011;38286;51.156;17.038;2023-05-14T03:38:20;17.77;;;10.32;;
52354;SDS011;38286;51.156;17.038;2023-05-14T03:40:46;15.55;;;9.35;;
52354;SDS011;38286;51.156;17.038;2023-05-14T03:43:12;16.60;;;9.68;;
52354;SDS011;38286;51.156;17.038;2023-05-14T03:45:38;16.05;;;9.02;;
52354;SDS011;38286;51.156;17.038;2023-05-14T03:48:04;18.77;;;9.68;;
52354;SDS011;38286;51.156;17.038;2023-05-14T03:50:31;14.82;;;9.43;;
52354;SDS011;38286;51.156;17.038;2023-05-14T03:52:56;15.10;;;9.75;;
52354;SDS011;38286;51.156;17.038;2023-05-14T03:55:23;16.63;;;9.95;;
52354;SDS011;38286;51.156;17.038;2023-05-14T03:57:48;15.48;;;9.27;;
52354;SDS011;38286;51.156;17.038;2023-05-14T04:00:15;15.98;;;9.82;;
52354;SDS011;38286;51.156;17.038;2023-05-14T04:02:41;19.10;;;9.68;;
52354;SDS011;38286;51.156;17.038;2023-05-14T04:05:07;18.20;;;10.38;;
52354;SDS011;38286;51.156;17.038;2023-05-14T04:07:33;16.88;;;9.98;;
52354;SDS011;38286;51.156;17.038;2023-05-14T04:10:00;18.70;;;10.02;;
52354;SDS011;38286;51.156;17.038;2023-05-14T04:12:27;17.05;;;10.45;;
52354;SDS011;38286;51.156;17.038;2023-05-14T04:14:53;19.38;;;10.20;;
52354;SDS011;38286;51.156;17.038;2023-05-14T04:17:19;17.10;;;10.05;;
52354;SDS011;38286;51.156;17.038;2023-05-14T04:19:45;16.35;;;9.88;;
52354;SDS011;38286;51.156;17.038;2023-05-14T04:22:11;15.57;;;10.05;;
52354;SDS011;38286;51.156;17.038;2023-05-14T04:24:37;18.30;;;10.95;;
52354;SDS011;38286;51.156;17.038;2023-05-14T04:27:02;14.30;;;9.63;;
52354;SDS011;38286;51.156;17.038;2023-05-14T04:29:29;19.38;;;10.30;;
52354;SDS011;38286;51.156;17.038;2023-05-14T04:31:55;15.15;;;9.93;;
52354;SDS011;38286;51.156;17.038;2023-05-14T04:34:21;18.02;;;9.27;;
52354;SDS011;38286;51.156;17.038;2023-05-14T04:36:47;17.98;;;10.10;;
52354;SDS011;38286;51.156;17.038;2023-05-14T04:39:13;20.40;;;10.35;;
52354;SDS011;38286;51.156;17.038;2023-05-14T04:41:39;16.77;;;9.77;;
52354;SDS011;38286;51.156;17.038;2023-05-14T04:44:05;15.63;;;9.88;;
52354;SDS011;38286;51.156;17.038;2023-05-14T04:46:31;17.33;;;9.77;;
52354;SDS011;38286;51.156;17.038;2023-05-14T04:48:58;17.05;;;10.05;;
52354;SDS011;38286;51.156;17.038;2023-05-14T04:51:23;16.75;;;9.90;;
52354;SDS011;38286;51.156;17.038;2023-05-14T04:53:50;14.63;;;9.40;;
52354;SDS011;38286;51.156;17.038;2023-05-14T04:56:16;14.63;;;9.52;;
52354;SDS011;38286;51.156;17.038;2023-05-14T04:58:42;19.58;;;10.48;;
52354;SDS011;38286;51.156;17.038;2023-05-14T05:01:08;14.23;;;9.57;;
52354;SDS011;38286;51.156;17.038;2023-05-14T05:03:34;15.20;;;9.40;;
52354;SDS011;38286;51.156;17.038;2023-05-14T05:06:00;14.38;;;9.27;;
52354;SDS011;38286;51.156;17.038;2023-05-14T05:08:26;16.17;;;9.90;;
52354;SDS011;38286;51.156;17.038;2023-05-14T05:10:52;17.83;;;10.23;;
52354;SDS011;38286;51.156;17.038;2023-05-14T05:13:18;17.42;;;9.02;;
52354;SDS011;38286;51.156;17.038;2023-05-14T05:15:44;14.35;;;9.00;;
52354;SDS011;38286;51.156;17.038;2023-05-14T05:18:10;16.17;;;9.43;;
52354;SDS011;38286;51.156;17.038;2023-05-14T05:20:36;16.98;;;9.60;;
52354;SDS011;38286;51.156;17.038;2023-05-14T05:23:02;15.35;;;8.93;;
52354;SDS011;38286;51.156;17.038;2023-05-14T05:25:28;16.10;;;7.82;;
52354;SDS011;38286;51.156;17.038;2023-05-14T05:27:54;15.98;;;8.95;;
52354;SDS011;38286;51.156;17.038;2023-05-14T05:30:20;15.20;;;7.82;;
52354;SDS011;38286;51.156;17.038;2023-05-14T05:32:47;12.38;;;7.65;;
52354;SDS011;38286;51.156;17.038;2023-05-14T05:35:13;11.68;;;7.78;;
52354;SDS011;38286;51.156;17.038;2023-05-14T05:37:39;11.80;;;7.72;;
52354;SDS011;38286;51.156;17.038;2023-05-14T05:40:05;13.25;;;7.78;;
52354;SDS011;38286;51.156;17.038;2023-05-14T05:42:32;12.38;;;7.45;;
52354;SDS011;38286;51.156;17.038;2023-05-14T05:44:58;13.63;;;7.20;;
52354;SDS011;38286;51.156;17.038;2023-05-14T05:47:24;15.88;;;8.02;;
52354;SDS011;38286;51.156;17.038;2023-05-14T05:49:50;12.85;;;7.80;;
52354;SDS011;38286;51.156;17.038;2023-05-14T05:52:16;13.95;;;7.30;;
52354;SDS011;38286;51.156;17.038;2023-05-14T05:54:42;10.32;;;7.15;;
52354;SDS011;38286;51.156;17.038;2023-05-14T05:57:08;13.55;;;7.45;;
52354;SDS011;38286;51.156;17.038;2023-05-14T05:59:34;14.82;;;7.70;;
52354;SDS011;38286;51.156;17.038;2023-05-14T06:02:00;14.75;;;7.75;;
52354;SDS011;38286;51.156;17.038;2023-05-14T06:04:26;15.75;;;7.82;;
52354;SDS011;38286;51.156;17.038;2023-05-14T06:06:52;12.30;;;7.95;;
52354;SDS011;38286;51.156;17.038;2023-05-14T06:09:18;11.27;;;7.47;;
52354;SDS011;38286;51.156;17.038;2023-05-14T06:11:45;13.45;;;7.50;;
52354;SDS011;38286;51.156;17.038;2023-05-14T06:14:11;12.93;;;7.75;;
52354;SDS011;38286;51.156;17.038;2023-05-14T06:16:37;13.23;;;7.60;;
52354;SDS011;38286;51.156;17.038;2023-05-14T06:19:03;15.43;;;7.50;;
52354;SDS011;38286;51.156;17.038;2023-05-14T06:21:29;14.30;;;7.60;;
52354;SDS011;38286;51.156;17.038;2023-05-14T06:23:55;11.90;;;6.55;;
52354;SDS011;38286;51.156;17.038;2023-05-14T06:26:21;11.43;;;7.18;;
52354;SDS011;38286;51.156;17.038;2023-05-14T06:28:47;10.32;;;6.93;;
52354;SDS011;38286;51.156;17.038;2023-05-14T06:31:13;9.30;;;6.90;;
52354;SDS011;38286;51.156;17.038;2023-05-14T06:33:39;10.23;;;6.40;;
52354;SDS011;38286;51.156;17.038;2023-05-14T06:36:06;8.93;;;6.30;;
52354;SDS011;38286;51.156;17.038;2023-05-14T06:38:32;11.75;;;6.60;;
52354;SDS011;38286;51.156;17.038;2023-05-14T06:40:58;9.48;;;6.38;;
52354;SDS011;38286;51.156;17.038;2023-05-14T06:43:24;11.60;;;6.80;;
52354;SDS011;38286;51.156;17.038;2023-05-14T06:45:50;10.88;;;6.05;;
52354;SDS011;38286;51.156;17.038;2023-05-14T06:48:17;8.55;;;5.70;;
52354;SDS011;38286;51.156;17.038;2023-05-14T06:50:43;12.07;;;6.55;;
52354;SDS011;38286;51.156;17.038;2023-05-14T06:53:13;9.75;;;5.97;;
52354;SDS011;38286;51.156;17.038;2023-05-14T06:55:40;9.98;;;6.80;;
52354;SDS011;38286;51.156;17.038;2023-05-14T06:58:06;9.65;;;5.82;;
52354;SDS011;38286;51.156;17.038;2023-05-14T07:00:32;9.38;;;6.20;;
52354;SDS011;38286;51.156;17.038;2023-05-14T07:02:58;8.68;;;5.10;;
52354;SDS011;38286;51.156;17.038;2023-05-14T07:05:24;9.75;;;5.50;;
52354;SDS011;38286;51.156;17.038;2023-05-14T07:07:50;8.35;;;5.18;;
52354;SDS011;38286;51.156;17.038;2023-05-14T07:10:16;6.80;;;4.80;;
52354;SDS011;38286;51.156;17.038;2023-05-14T07:12:42;7.72;;;4.32;;
52354;SDS011;38286;51.156;17.038;2023-05-14T07:15:09;5.90;;;3.95;;
52354;SDS011;38286;51.156;17.038;2023-05-14T07:17:36;4.15;;;3.08;;
52354;SDS011;38286;51.156;17.038;2023-05-14T07:20:02;6.75;;;3.40;;
52354;SDS011;38286;51.156;17.038;2023-05-14T07:22:28;4.70;;;3.17;;
52354;SDS011;38286;51.156;17.038;2023-05-14T07:24:54;4.72;;;3.10;;
52354;SDS011;38286;51.156;17.038;2023-05-14T07:27:20;3.60;;;2.63;;
52354;SDS011;38286;51.156;17.038;2023-05-14T07:29:46;4.63;;;3.00;;
52354;SDS011;38286;51.156;17.038;2023-05-14T07:32:13;4.25;;;3.03;;
52354;SDS011;38286;51.156;17.038;2023-05-14T07:34:39;3.17;;;2.65;;
52354;SDS011;38286;51.156;17.038;2023-05-14T07:37:05;2.97;;;2.50;;
52354;SDS011;38286;51.156;17.038;2023-05-14T07:39:31;5.32;;;2.95;;
52354;SDS011;38286;51.156;17.038;2023-05-14T07:41:57;3.20;;;2.40;;
52354;SDS011;38286;51.156;17.038;2023-05-14T07:44:24;3.83;;;2.63;;
52354;SDS011;38286;51.156;17.038;2023-05-14T07:46:50;5.05;;;2.20;;
52354;SDS011;38286;51.156;17.038;2023-05-14T07:49:16;2.33;;;2.00;;
52354;SDS011;38286;51.156;17.038;2023-05-14T07:51:42;5.15;;;2.13;;
52354;SDS011;38286;51.156;17.038;2023-05-14T07:54:08;4.00;;;1.88;;
52354;SDS011;38286;51.156;17.038;2023-05-14T07:56:35;5.07;;;2.15;;
52354;SDS011;38286;51.156;17.038;2023-05-14T07:59:01;3.13;;;1.63;;
52354;SDS011;38286;51.156;17.038;2023-05-14T08:01:27;3.60;;;2.10;;
52354;SDS011;38286;51.156;17.038;2023-05-14T08:03:53;2.55;;;1.75;;
52354;SDS011;38286;51.156;17.038;2023-05-14T08:06:19;2.88;;;1.95;;
52354;SDS011;38286;51.156;17.038;2023-05-14T08:08:47;2.92;;;1.80;;
52354;SDS011;38286;51.156;17.038;2023-05-14T08:11:13;2.22;;;1.60;;
52354;SDS011;38286;51.156;17.038;2023-05-14T08:13:39;2.05;;;1.70;;
52354;SDS011;38286;51.156;17.038;2023-05-14T08:16:05;3.42;;;1.88;;
52354;SDS011;38286;51.156;17.038;2023-05-14T08:18:32;3.15;;;1.60;;
52354;SDS011;38286;51.156;17.038;2023-05-14T08:20:58;2.42;;;1.50;;
52354;SDS011;38286;51.156;17.038;2023-05-14T08:23:24;1.40;;;1.30;;
52354;SDS011;38286;51.156;17.038;2023-05-14T08:25:50;2.00;;;1.70;;
52354;SDS011;38286;51.156;17.038;2023-05-14T08:28:16;3.45;;;1.70;;
52354;SDS011;38286;51.156;17.038;2023-05-14T08:30:42;2.45;;;1.60;;
52354;SDS011;38286;51.156;17.038;2023-05-14T08:33:08;2.90;;;1.83;;
52354;SDS011;38286;51.156;17.038;2023-05-14T08:35:34;1.65;;;1.55;;
52354;SDS011;38286;51.156;17.038;2023-05-14T08:38:01;2.13;;;1.92;;
52354;SDS011;38286;51.156;17.038;2023-05-14T08:40:26;2.95;;;2.20;;
52354;SDS011;38286;51.156;17.038;2023-05-14T08:42:53;2.33;;;1.70;;
52354;SDS011;38286;51.156;17.038;2023-05-14T08:45:20;2.47;;;2.28;;
52354;SDS011;38286;51.156;17.038;2023-05-14T08:47:50;3.15;;;2.00;;
52354;SDS011;38286;51.156;17.038;2023-05-14T08:50:16;2.13;;;1.67;;
52354;SDS011;38286;51.156;17.038;2023-05-14T08:52:43;2.20;;;1.40;;
52354;SDS011;38286;51.156;17.038;2023-05-14T08:55:09;3.35;;;1.33;;
52354;SDS011;38286;51.156;17.038;2023-05-14T08:57:36;2.28;;;1.30;;
52354;SDS011;38286;51.156;17.038;2023-05-14T09:00:02;2.50;;;1.55;;
52354;SDS011;38286;51.156;17.038;2023-05-14T09:02:33;1.75;;;1.48;;
52354;SDS011;38286;51.156;17.038;2023-05-14T09:05:00;2.30;;;1.35;;
52354;SDS011;38286;51.156;17.038;2023-05-14T09:07:28;3.20;;;1.20;;
52354;SDS011;38286;51.156;17.038;2023-05-14T09:09:54;3.10;;;1.10;;
52354;SDS011;38286;51.156;17.038;2023-05-14T09:12:20;2.15;;;1.10;;
52354;SDS011;38286;51.156;17.038;2023-05-14T09:14:47;1.20;;;1.00;;
52354;SDS011;38286;51.156;17.038;2023-05-14T09:17:14;3.25;;;1.50;;
52354;SDS011;38286;51.156;17.038;2023-05-14T09:19:41;1.08;;;1.02;;
52354;SDS011;38286;51.156;17.038;2023-05-14T09:22:10;1.23;;;1.13;;
52354;SDS011;38286;51.156;17.038;2023-05-14T09:24:36;2.33;;;1.50;;
52354;SDS011;38286;51.156;17.038;2023-05-14T09:27:06;1.20;;;1.10;;
52354;SDS011;38286;51.156;17.038;2023-05-14T09:29:32;2.85;;;1.50;;
52354;SDS011;38286;51.156;17.038;2023-05-14T09:31:59;2.08;;;1.30;;
52354;SDS011;38286;51.156;17.038;2023-05-14T09:34:29;1.77;;;1.30;;
52354;SDS011;38286;51.156;17.038;2023-05-14T09:36:57;1.48;;;1.38;;
52354;SDS011;38286;51.156;17.038;2023-05-14T09:39:28;1.35;;;1.02;;
52354;SDS011;38286;51.156;17.038;2023-05-14T09:41:55;1.35;;;1.20;;
52354;SDS011;38286;51.156;17.038;2023-05-14T09:44:21;1.50;;;1.30;;
52354;SDS011;38286;51.156;17.038;2023-05-14T09:46:48;2.70;;;1.20;;
52354;SDS011;38286;51.156;17.038;2023-05-14T09:49:14;1.35;;;1.10;;
52354;SDS011;38286;51.156;17.038;2023-05-14T09:51:41;2.30;;;1.20;;
52354;SDS011;38286;51.156;17.038;2023-05-14T09:54:07;5.60;;;1.60;;
52354;SDS011;38286;51.156;17.038;2023-05-14T09:56:34;1.75;;;0.98;;
52354;SDS011;38286;51.156;17.038;2023-05-14T09:59:01;2.10;;;1.10;;
52354;SDS011;38286;51.156;17.038;2023-05-14T10:01:28;2.05;;;1.10;;
52354;SDS011;38286;51.156;17.038;2023-05-14T10:03:54;3.22;;;1.52;;
52354;SDS011;38286;51.156;17.038;2023-05-14T10:06:24;1.25;;;1.00;;
52354;SDS011;38286;51.156;17.038;2023-05-14T10:08:56;2.22;;;1.30;;
52354;SDS011;38286;51.156;17.038;2023-05-14T10:11:28;2.58;;;1.00;;
52354;SDS011;38286;51.156;17.038;2023-05-14T10:13:59;1.67;;;1.38;;
52354;SDS011;38286;51.156;17.038;2023-05-14T10:16:27;5.57;;;1.65;;
52354;SDS011;38286;51.156;17.038;2023-05-14T10:18:55;1.75;;;1.25;;
52354;SDS011;38286;51.156;17.038;2023-05-14T10:21:26;3.33;;;1.50;;
52354;SDS011;38286;51.156;17.038;2023-05-14T10:23:56;3.80;;;1.45;;
52354;SDS011;38286;51.156;17.038;2023-05-14T10:26:22;2.20;;;1.30;;
52354;SDS011;38286;51.156;17.038;2023-05-14T10:28:48;1.80;;;1.02;;
52354;SDS011;38286;51.156;17.038;2023-05-14T10:31:14;1.45;;;1.35;;
52354;SDS011;38286;51.156;17.038;2023-05-14T10:33:48;6.40;;;3.08;;
52354;SDS011;38286;51.156;17.038;2023-05-14T10:36:18;1.83;;;1.42;;
52354;SDS011;38286;51.156;17.038;2023-05-14T10:38:44;2.28;;;1.40;;
52354;SDS011;38286;51.156;17.038;2023-05-14T10:41:12;1.40;;;1.20;;
52354;SDS011;38286;51.156;17.038;2023-05-14T10:43:45;1.98;;;1.38;;
52354;SDS011;38286;51.156;17.038;2023-05-14T10:46:12;2.17;;;1.10;;
52354;SDS011;38286;51.156;17.038;2023-05-14T10:48:40;1.20;;;1.00;;
52354;SDS011;38286;51.156;17.038;2023-05-14T10:51:07;2.60;;;1.15;;
52354;SDS011;38286;51.156;17.038;2023-05-14T10:53:34;2.15;;;1.20;;
52354;SDS011;38286;51.156;17.038;2023-05-14T10:56:02;2.00;;;1.15;;
52354;SDS011;38286;51.156;17.038;2023-05-14T10:58:36;1.08;;;0.90;;
52354;SDS011;38286;51.156;17.038;2023-05-14T11:01:03;2.10;;;1.05;;
52354;SDS011;38286;51.156;17.038;2023-05-14T11:03:31;1.10;;;1.00;;
52354;SDS011;38286;51.156;17.038;2023-05-14T11:05:58;1.60;;;1.00;;
52354;SDS011;38286;51.156;17.038;2023-05-14T11:08:28;1.05;;;1.00;;
52354;SDS011;38286;51.156;17.038;2023-05-14T11:10:55;1.10;;;0.90;;
52354;SDS011;38286;51.156;17.038;2023-05-14T11:13:21;2.17;;;1.08;;
52354;SDS011;38286;51.156;17.038;2023-05-14T11:15:48;0.90;;;0.90;;
52354;SDS011;38286;51.156;17.038;2023-05-14T11:18:24;2.38;;;0.75;;
52354;SDS011;38286;51.156;17.038;2023-05-14T11:20:52;0.95;;;0.80;;
52354;SDS011;38286;51.156;17.038;2023-05-14T11:23:20;1.30;;;1.10;;
52354;SDS011;38286;51.156;17.038;2023-05-14T11:25:47;1.15;;;0.95;;
52354;SDS011;38286;51.156;17.038;2023-05-14T11:28:13;1.27;;;1.17;;
52354;SDS011;38286;51.156;17.038;2023-05-14T11:30:40;1.17;;;1.08;;
52354;SDS011;38286;51.156;17.038;2023-05-14T11:33:06;3.92;;;1.17;;
52354;SDS011;38286;51.156;17.038;2023-05-14T11:35:32;2.15;;;1.20;;
52354;SDS011;38286;51.156;17.038;2023-05-14T11:37:58;12.00;;;1.80;;
52354;SDS011;38286;51.156;17.038;2023-05-14T11:40:24;1.90;;;1.20;;
52354;SDS011;38286;51.156;17.038;2023-05-14T11:42:50;2.65;;;1.23;;
52354;SDS011;38286;51.156;17.038;2023-05-14T11:45:27;1.88;;;1.20;;
52354;SDS011;38286;51.156;17.038;2023-05-14T11:47:54;1.67;;;1.10;;
52354;SDS011;38286;51.156;17.038;2023-05-14T11:50:23;1.90;;;1.20;;
52354;SDS011;38286;51.156;17.038;2023-05-14T11:52:49;1.30;;;1.20;;
52354;SDS011;38286;51.156;17.038;2023-05-14T11:55:27;2.15;;;1.30;;
52354;SDS011;38286;51.156;17.038;2023-05-14T11:57:54;2.92;;;1.00;;
52354;SDS011;38286;51.156;17.038;2023-05-14T12:00:21;1.30;;;1.20;;
52354;SDS011;38286;51.156;17.038;2023-05-14T12:02:48;1.55;;;1.38;;
52354;SDS011;38286;51.156;17.038;2023-05-14T12:05:14;1.95;;;1.27;;
52354;SDS011;38286;51.156;17.038;2023-05-14T12:07:43;1.52;;;1.10;;
52354;SDS011;38286;51.156;17.038;2023-05-14T12:10:10;4.07;;;1.02;;
52354;SDS011;38286;51.156;17.038;2023-05-14T12:12:36;1.52;;;1.42;;
52354;SDS011;38286;51.156;17.038;2023-05-14T12:15:09;1.48;;;1.30;;
52354;SDS011;38286;51.156;17.038;2023-05-14T12:17:39;1.90;;;1.50;;
52354;SDS011;38286;51.156;17.038;2023-05-14T12:20:08;1.30;;;1.20;;
52354;SDS011;38286;51.156;17.038;2023-05-14T12:22:35;1.77;;;1.52;;
52354;SDS011;38286;51.156;17.038;2023-05-14T12:25:01;2.00;;;1.40;;
52354;SDS011;38286;51.156;17.038;2023-05-14T12:27:28;3.60;;;1.30;;
52354;SDS011;38286;51.156;17.038;2023-05-14T12:30:01;2.40;;;1.13;;
52354;SDS011;38286;51.156;17.038;2023-05-14T12:32:31;1.15;;;1.05;;
52354;SDS011;38286;51.156;17.038;2023-05-14T12:34:59;1.50;;;1.25;;
52354;SDS011;38286;51.156;17.038;2023-05-14T12:37:27;1.67;;;1.20;;
52354;SDS011;38286;51.156;17.038;2023-05-14T12:39:54;1.25;;;1.10;;
52354;SDS011;38286;51.156;17.038;2023-05-14T12:42:19;1.73;;;1.30;;
52354;SDS011;38286;51.156;17.038;2023-05-14T12:44:46;2.08;;;1.38;;
52354;SDS011;38286;51.156;17.038;2023-05-14T12:47:12;2.47;;;1.60;;
52354;SDS011;38286;51.156;17.038;2023-05-14T12:49:38;1.60;;;1.50;;
52354;SDS011;38286;51.156;17.038;2023-05-14T12:52:04;1.92;;;1.30;;
52354;SDS011;38286;51.156;17.038;2023-05-14T12:54:31;3.70;;;1.63;;
52354;SDS011;38286;51.156;17.038;2023-05-14T12:56:57;3.70;;;1.25;;
52354;SDS011;38286;51.156;17.038;2023-05-14T12:59:23;1.67;;;1.30;;
52354;SDS011;38286;51.156;17.038;2023-05-14T13:01:49;1.83;;;1.38;;
52354;SDS011;38286;51.156;17.038;2023-05-14T13:04:15;1.55;;;1.30;;
52354;SDS011;38286;51.156;17.038;2023-05-14T13:06:41;2.58;;;1.48;;
52354;SDS011;38286;51.156;17.038;2023-05-14T13:09:07;2.08;;;1.58;;
52354;SDS011;38286;51.156;17.038;2023-05-14T13:11:33;1.75;;;1.50;;
52354;SDS011;38286;51.156;17.038;2023-05-14T13:14:00;2.00;;;1.60;;
52354;SDS011;38286;51.156;17.038;2023-05-14T13:16:26;3.47;;;1.52;;
52354;SDS011;38286;51.156;17.038;2023-05-14T13:18:53;2.40;;;1.75;;
52354;SDS011;38286;51.156;17.038;2023-05-14T13:21:19;2.60;;;2.00;;
52354;SDS011;38286;51.156;17.038;2023-05-14T13:23:46;15.60;;;2.80;;
52354;SDS011;38286;51.156;17.038;2023-05-14T13:26:12;3.85;;;2.17;;
52354;SDS011;38286;51.156;17.038;2023-05-14T13:28:38;2.47;;;2.28;;
52354;SDS011;38286;51.156;17.038;2023-05-14T13:31:05;3.20;;;2.13;;
52354;SDS011;38286;51.156;17.038;2023-05-14T13:33:33;3.03;;;2.45;;
52354;SDS011;38286;51.156;17.038;2023-05-14T13:36:00;2.90;;;2.45;;
52354;SDS011;38286;51.156;17.038;2023-05-14T13:38:26;3.55;;;2.47;;
52354;SDS011;38286;51.156;17.038;2023-05-14T13:40:52;3.67;;;2.45;;
52354;SDS011;38286;51.156;17.038;2023-05-14T13:43:19;3.22;;;2.53;;
52354;SDS011;38286;51.156;17.038;2023-05-14T13:45:44;4.30;;;2.88;;
52354;SDS011;38286;51.156;17.038;2023-05-14T13:48:11;5.22;;;2.60;;
52354;SDS011;38286;51.156;17.038;2023-05-14T13:50:38;2.58;;;2.38;;
52354;SDS011;38286;51.156;17.038;2023-05-14T13:53:04;3.70;;;2.72;;
52354;SDS011;38286;51.156;17.038;2023-05-14T13:55:30;3.25;;;2.45;;
52354;SDS011;38286;51.156;17.038;2023-05-14T13:57:56;3.00;;;2.60;;
52354;SDS011;38286;51.156;17.038;2023-05-14T14:00:23;4.03;;;2.40;;
52354;SDS011;38286;51.156;17.038;2023-05-14T14:02:50;3.15;;;2.47;;
52354;SDS011;38286;51.156;17.038;2023-05-14T14:05:16;3.78;;;2.45;;
52354;SDS011;38286;51.156;17.038;2023-05-14T14:07:42;3.05;;;2.75;;
52354;SDS011;38286;51.156;17.038;2023-05-14T14:10:08;4.78;;;2.55;;
52354;SDS011;38286;51.156;17.038;2023-05-14T14:12:35;4.55;;;2.83;;
52354;SDS011;38286;51.156;17.038;2023-05-14T14:15:01;4.63;;;2.90;;
52354;SDS011;38286;51.156;17.038;2023-05-14T14:17:28;3.80;;;2.70;;
52354;SDS011;38286;51.156;17.038;2023-05-14T14:19:54;3.58;;;2.63;;
52354;SDS011;38286;51.156;17.038;2023-05-14T14:22:20;3.67;;;3.30;;
52354;SDS011;38286;51.156;17.038;2023-05-14T14:24:46;6.35;;;3.30;;
52354;SDS011;38286;51.156;17.038;2023-05-14T14:27:12;11.00;;;9.88;;
52354;SDS011;38286;51.156;17.038;2023-05-14T14:29:38;4.75;;;3.22;;
52354;SDS011;38286;51.156;17.038;2023-05-14T14:32:04;5.85;;;3.08;;